sensor_id;sensor_type;location;lat;lon;timestamp;pressure;altitude;pressure_sealevel;temperature;humidity
74103;BME280;62853;46.166;3.640;2023-02-28T00:01:28;102895.66;;;-0.76;100.00
74103;BME280;62853;46.166;3.640;2023-02-28T00:04:06;102896.63;;;-0.71;100.00
74103;BME280;62853;46.166;3.640;2023-02-28T00:06:36;102894.00;;;-0.74;100.00
74103;BME280;62853;46.166;3.640;2023-02-28T00:09:12;102894.94;;;-0.70;100.00
74103;BME280;62853;46.166;3.640;2023-02-28T00:11:37;102895.78;;;-0.71;100.00
74103;BME280;62853;46.166;3.640;2023-02-28T00:14:09;102890.47;;;-0.76;100.00
74103;BME280;62853;46.166;3.640;2023-02-28T00:16:37;102884.53;;;-0.73;100.00
74103;BME280;62853;46.166;3.640;2023-02-28T00:19:05;102888.88;;;-0.71;100.00
74103;BME280;62853;46.166;3.640;2023-02-28T00:21:33;102913.31;;;-0.60;100.00
74103;BME280;62853;46.166;3.640;2023-02-28T00:23:58;102897.41;;;-0.75;100.00
74103;BME280;62853;46.166;3.640;2023-02-28T00:26:29;102905.09;;;-0.78;100.00
74103;BME280;62853;46.166;3.640;2023-02-28T00:28:57;102902.38;;;-0.83;100.00
74103;BME280;62853;46.166;3.640;2023-02-28T00:31:26;102898.75;;;-0.89;100.00
74103;BME280;62853;46.166;3.640;2023-02-28T00:33:54;102904.63;;;-0.97;100.00
74103;BME280;62853;46.166;3.640;2023-02-28T00:36:25;102893.16;;;-1.06;100.00
74103;BME280;62853;46.166;3.640;2023-02-28T00:38:52;102896.53;;;-1.09;100.00
74103;BME280;62853;46.166;3.640;2023-02-28T00:41:20;102912.16;;;-1.06;100.00
74103;BME280;62853;46.166;3.640;2023-02-28T00:43:51;102899.00;;;-1.14;100.00
74103;BME280;62853;46.166;3.640;2023-02-28T00:46:17;102905.97;;;-1.11;100.00
74103;BME280;62853;46.166;3.640;2023-02-28T00:48:47;102907.66;;;-1.12;100.00
74103;BME280;62853;46.166;3.640;2023-02-28T00:51:12;102900.59;;;-1.19;100.00
74103;BME280;62853;46.166;3.640;2023-02-28T00:53:40;102904.03;;;-1.20;100.00
74103;BME280;62853;46.166;3.640;2023-02-28T00:56:11;102890.19;;;-1.20;100.00
74103;BME280;62853;46.166;3.640;2023-02-28T00:58:39;102907.53;;;-1.18;100.00
74103;BME280;62853;46.166;3.640;2023-02-28T01:01:05;102908.47;;;-1.14;100.00
74103;BME280;62853;46.166;3.640;2023-02-28T01:03:35;102896.31;;;-1.17;100.00
74103;BME280;62853;46.166;3.640;2023-02-28T01:06:03;102908.56;;;-1.11;100.00
74103;BME280;62853;46.166;3.640;2023-02-28T01:08:34;102921.69;;;-1.03;100.00
74103;BME280;62853;46.166;3.640;2023-02-28T01:11:31;102913.91;;;-1.03;100.00
74103;BME280;62853;46.166;3.640;2023-02-28T01:14:03;102912.34;;;-0.98;100.00
74103;BME280;62853;46.166;3.640;2023-02-28T01:16:31;102907.94;;;-1.02;100.00
74103;BME280;62853;46.166;3.640;2023-02-28T01:18:59;102922.03;;;-0.89;100.00
74103;BME280;62853;46.166;3.640;2023-02-28T01:21:29;102916.09;;;-0.87;100.00
74103;BME280;62853;46.166;3.640;2023-02-28T01:23:57;102922.28;;;-0.80;100.00
74103;BME280;62853;46.166;3.640;2023-02-28T01:26:25;102915.47;;;-0.77;100.00
74103;BME280;62853;46.166;3.640;2023-02-28T01:28:56;102914.53;;;-0.80;100.00
74103;BME280;62853;46.166;3.640;2023-02-28T01:31:39;102919.78;;;-0.77;100.00
74103;BME280;62853;46.166;3.640;2023-02-28T01:34:07;102926.81;;;-0.71;100.00
74103;BME280;62853;46.166;3.640;2023-02-28T01:36:43;102919.06;;;-0.71;100.00
74103;BME280;62853;46.166;3.640;2023-02-28T01:39:10;102910.41;;;-0.73;100.00
74103;BME280;62853;46.166;3.640;2023-02-28T01:41:50;102920.06;;;-0.66;100.00
74103;BME280;62853;46.166;3.640;2023-02-28T01:44:57;102924.44;;;-0.64;100.00
74103;BME280;62853;46.166;3.640;2023-02-28T01:47:30;102903.38;;;-0.78;100.00
74103;BME280;62853;46.166;3.640;2023-02-28T01:50:01;102910.44;;;-0.72;100.00
74103;BME280;62853;46.166;3.640;2023-02-28T01:52:28;102905.00;;;-0.81;100.00
74103;BME280;62853;46.166;3.640;2023-02-28T01:54:55;102910.41;;;-0.73;100.00
74103;BME280;62853;46.166;3.640;2023-02-28T01:57:30;102893.78;;;-0.82;100.00
74103;BME280;62853;46.166;3.640;2023-02-28T02:00:06;102904.41;;;-0.72;100.00
74103;BME280;62853;46.166;3.640;2023-02-28T02:02:41;102892.19;;;-0.77;100.00
74103;BME280;62853;46.166;3.640;2023-02-28T02:05:21;102894.88;;;-0.73;100.00
74103;BME280;62853;46.166;3.640;2023-02-28T02:07:52;102890.50;;;-0.75;100.00
74103;BME280;62853;46.166;3.640;2023-02-28T02:10:36;102891.38;;;-0.76;100.00
74103;BME280;62853;46.166;3.640;2023-02-28T02:19:00;102896.56;;;-0.76;100.00
74103;BME280;62853;46.166;3.640;2023-02-28T02:29:54;102871.31;;;-0.84;100.00
74103;BME280;62853;46.166;3.640;2023-02-28T02:38:38;102882.66;;;-0.79;100.00
74103;BME280;62853;46.166;3.640;2023-02-28T02:44:24;102882.38;;;-0.90;100.00
74103;BME280;62853;46.166;3.640;2023-02-28T02:47:08;102876.09;;;-1.00;100.00
74103;BME280;62853;46.166;3.640;2023-02-28T02:49:40;102878.47;;;-1.07;100.00
74103;BME280;62853;46.166;3.640;2023-02-28T02:55:03;102860.91;;;-1.21;100.00
74103;BME280;62853;46.166;3.640;2023-02-28T02:57:41;102879.09;;;-1.18;100.00
74103;BME280;62853;46.166;3.640;2023-02-28T03:00:11;102895.69;;;-1.09;100.00
74103;BME280;62853;46.166;3.640;2023-02-28T03:02:49;102885.13;;;-1.17;100.00
74103;BME280;62853;46.166;3.640;2023-02-28T03:05:29;102866.97;;;-1.19;100.00
74103;BME280;62853;46.166;3.640;2023-02-28T03:07:58;102875.53;;;-1.21;100.00
74103;BME280;62853;46.166;3.640;2023-02-28T03:10:33;102878.00;;;-1.26;100.00
74103;BME280;62853;46.166;3.640;2023-02-28T03:16:49;102888.53;;;-1.18;100.00
74103;BME280;62853;46.166;3.640;2023-02-28T03:18:54;102892.91;;;-1.16;100.00
74103;BME280;62853;46.166;3.640;2023-02-28T03:26:26;102868.69;;;-1.19;100.00
74103;BME280;62853;46.166;3.640;2023-02-28T03:29:19;102890.72;;;-1.00;100.00
74103;BME280;62853;46.166;3.640;2023-02-28T03:31:56;102865.69;;;-1.01;100.00
74103;BME280;62853;46.166;3.640;2023-02-28T03:34:30;102869.34;;;-0.93;100.00
74103;BME280;62853;46.166;3.640;2023-02-28T03:37:03;102865.13;;;-0.91;100.00
74103;BME280;62853;46.166;3.640;2023-02-28T03:39:43;102884.44;;;-0.77;100.00
74103;BME280;62853;46.166;3.640;2023-02-28T03:42:14;102874.16;;;-0.73;100.00
74103;BME280;62853;46.166;3.640;2023-02-28T03:44:54;102883.94;;;-0.62;100.00
74103;BME280;62853;46.166;3.640;2023-02-28T03:47:27;102889.25;;;-0.57;100.00
74103;BME280;62853;46.166;3.640;2023-02-28T03:49:59;102877.97;;;-0.59;100.00
74103;BME280;62853;46.166;3.640;2023-02-28T03:52:38;102873.69;;;-0.59;100.00
74103;BME280;62853;46.166;3.640;2023-02-28T03:55:18;102874.66;;;-0.53;100.00
74103;BME280;62853;46.166;3.640;2023-02-28T03:58:01;102866.00;;;-0.55;100.00
74103;BME280;62853;46.166;3.640;2023-02-28T04:00:38;102874.75;;;-0.50;100.00
74103;BME280;62853;46.166;3.640;2023-02-28T04:03:08;102882.56;;;-0.47;100.00
74103;BME280;62853;46.166;3.640;2023-02-28T04:05:48;102874.88;;;-0.44;100.00
74103;BME280;62853;46.166;3.640;2023-02-28T04:08:19;102876.66;;;-0.42;100.00
74103;BME280;62853;46.166;3.640;2023-02-28T04:10:51;102892.47;;;-0.29;100.00
74103;BME280;62853;46.166;3.640;2023-02-28T04:13:17;102885.44;;;-0.35;100.00
74103;BME280;62853;46.166;3.640;2023-02-28T04:15:48;102885.56;;;-0.29;100.00
74103;BME280;62853;46.166;3.640;2023-02-28T04:18:26;102883.88;;;-0.28;100.00
74103;BME280;62853;46.166;3.640;2023-02-28T04:20:54;102885.81;;;-0.20;100.00
74103;BME280;62853;46.166;3.640;2023-02-28T04:23:22;102876.28;;;-0.21;100.00
74103;BME280;62853;46.166;3.640;2023-02-28T04:25:47;102885.06;;;-0.14;100.00
74103;BME280;62853;46.166;3.640;2023-02-28T04:28:26;102893.06;;;-0.05;100.00
74103;BME280;62853;46.166;3.640;2023-02-28T04:30:59;102883.38;;;-0.12;100.00
74103;BME280;62853;46.166;3.640;2023-02-28T04:33:25;102895.63;;;-0.05;100.00
74103;BME280;62853;46.166;3.640;2023-02-28T04:36:06;102888.63;;;-0.09;100.00
74103;BME280;62853;46.166;3.640;2023-02-28T04:38:36;102881.78;;;-0.07;100.00
74103;BME280;62853;46.166;3.640;2023-02-28T04:41:02;102887.09;;;-0.01;100.00
74103;BME280;62853;46.166;3.640;2023-02-28T04:43:31;102894.94;;;0.03;100.00
74103;BME280;62853;46.166;3.640;2023-02-28T04:46:03;102883.59;;;-0.03;100.00
74103;BME280;62853;46.166;3.640;2023-02-28T04:48:41;102881.06;;;0.01;100.00
74103;BME280;62853;46.166;3.640;2023-02-28T04:51:18;102891.44;;;0.01;100.00
74103;BME280;62853;46.166;3.640;2023-02-28T04:53:48;102885.31;;;-0.03;100.00
74103;BME280;62853;46.166;3.640;2023-02-28T04:56:17;102887.88;;;-0.05;100.00
74103;BME280;62853;46.166;3.640;2023-02-28T04:58:50;102886.19;;;-0.03;100.00
74103;BME280;62853;46.166;3.640;2023-02-28T05:01:27;102900.19;;;0.06;100.00
74103;BME280;62853;46.166;3.640;2023-02-28T05:04:04;102888.81;;;-0.01;100.00
74103;BME280;62853;46.166;3.640;2023-02-28T05:06:33;102895.09;;;0.10;100.00
74103;BME280;62853;46.166;3.640;2023-02-28T05:09:03;102894.13;;;0.07;100.00
74103;BME280;62853;46.166;3.640;2023-02-28T05:11:33;102897.59;;;0.06;100.00
74103;BME280;62853;46.166;3.640;2023-02-28T05:14:12;102895.91;;;0.08;100.00
74103;BME280;62853;46.166;3.640;2023-02-28T05:16:45;102894.97;;;0.04;100.00
74103;BME280;62853;46.166;3.640;2023-02-28T05:19:13;102890.59;;;0.03;100.00
74103;BME280;62853;46.166;3.640;2023-02-28T05:21:53;102902.81;;;0.07;100.00
74103;BME280;62853;46.166;3.640;2023-02-28T05:24:19;102912.47;;;0.14;100.00
74103;BME280;62853;46.166;3.640;2023-02-28T05:26:50;102905.44;;;0.09;100.00
74103;BME280;62853;46.166;3.640;2023-02-28T05:29:16;102914.16;;;0.12;100.00
74103;BME280;62853;46.166;3.640;2023-02-28T05:31:44;102901.09;;;0.08;100.00
74103;BME280;62853;46.166;3.640;2023-02-28T05:34:30;102907.09;;;0.05;100.00
74103;BME280;62853;46.166;3.640;2023-02-28T05:37:01;102921.09;;;0.15;100.00
74103;BME280;62853;46.166;3.640;2023-02-28T05:39:33;102909.75;;;0.10;100.00
74103;BME280;62853;46.166;3.640;2023-02-28T05:42:08;102916.69;;;0.11;100.00
74103;BME280;62853;46.166;3.640;2023-02-28T05:44:39;102921.03;;;0.10;100.00
74103;BME280;62853;46.166;3.640;2023-02-28T05:47:07;102908.91;;;0.09;100.00
74103;BME280;62853;46.166;3.640;2023-02-28T05:49:45;102926.31;;;0.16;100.00
74103;BME280;62853;46.166;3.640;2023-02-28T05:52:18;102900.19;;;0.06;100.00
74103;BME280;62853;46.166;3.640;2023-02-28T05:54:58;102914.06;;;0.09;100.00
74103;BME280;62853;46.166;3.640;2023-02-28T05:57:42;102916.69;;;0.11;100.00
74103;BME280;62853;46.166;3.640;2023-02-28T06:00:20;102903.56;;;0.03;100.00
74103;BME280;62853;46.166;3.640;2023-02-28T06:02:56;102897.53;;;0.03;100.00
74103;BME280;62853;46.166;3.640;2023-02-28T06:05:43;102907.03;;;0.02;100.00
74103;BME280;62853;46.166;3.640;2023-02-28T06:08:16;102899.97;;;-0.04;100.00
74103;BME280;62853;46.166;3.640;2023-02-28T06:10:47;102905.09;;;-0.07;100.00
74103;BME280;62853;46.166;3.640;2023-02-28T06:13:45;102918.13;;;-0.02;100.00
74103;BME280;62853;46.166;3.640;2023-02-28T06:16:27;102924.97;;;-0.06;100.00
74103;BME280;62853;46.166;3.640;2023-02-28T06:19:05;102918.91;;;-0.06;100.00
74103;BME280;62853;46.166;3.640;2023-02-28T06:21:54;102914.53;;;-0.09;100.00
74103;BME280;62853;46.166;3.640;2023-02-28T06:24:50;102910.16;;;-0.11;100.00
74103;BME280;62853;46.166;3.640;2023-02-28T06:27:30;102920.56;;;-0.10;100.00
74103;BME280;62853;46.166;3.640;2023-02-28T06:30:36;102947.44;;;-0.05;100.00
74103;BME280;62853;46.166;3.640;2023-02-28T06:33:09;102922.19;;;-0.15;100.00
74103;BME280;62853;46.166;3.640;2023-02-28T06:36:19;102937.03;;;-0.06;100.00
74103;BME280;62853;46.166;3.640;2023-02-28T06:38:48;102929.28;;;-0.06;100.00
74103;BME280;62853;46.166;3.640;2023-02-28T06:41:26;102950.34;;;0.09;100.00
74103;BME280;62853;46.166;3.640;2023-02-28T06:44:13;102932.03;;;0.02;100.00
74103;BME280;62853;46.166;3.640;2023-02-28T06:46:47;102932.28;;;0.12;100.00
74103;BME280;62853;46.166;3.640;2023-02-28T06:49:16;102934.09;;;0.16;100.00
74103;BME280;62853;46.166;3.640;2023-02-28T06:51:46;102936.91;;;0.26;100.00
74103;BME280;62853;46.166;3.640;2023-02-28T06:54:17;102943.84;;;0.28;100.00
74103;BME280;62853;46.166;3.640;2023-02-28T06:56:45;102943.09;;;0.32;100.00
74103;BME280;62853;46.166;3.640;2023-02-28T06:59:27;102938.84;;;0.36;100.00
74103;BME280;62853;46.166;3.640;2023-02-28T07:02:20;102953.84;;;0.51;100.00
74103;BME280;62853;46.166;3.640;2023-02-28T07:05:03;102942.47;;;0.44;100.00
74103;BME280;62853;46.166;3.640;2023-02-28T07:07:47;102957.34;;;0.53;100.00
74103;BME280;62853;46.166;3.640;2023-02-28T07:10:16;102958.97;;;0.48;100.00
74103;BME280;62853;46.166;3.640;2023-02-28T07:12:58;102966.75;;;0.48;100.00
74103;BME280;62853;46.166;3.640;2023-02-28T07:15:54;102961.72;;;0.55;100.00
74103;BME280;62853;46.166;3.640;2023-02-28T07:18:25;102968.88;;;0.67;100.00
74103;BME280;62853;46.166;3.640;2023-02-28T07:21:03;102982.22;;;0.86;100.00
74103;BME280;62853;46.166;3.640;2023-02-28T07:23:39;102967.50;;;0.85;100.00
74103;BME280;62853;46.166;3.640;2023-02-28T07:26:17;102975.50;;;0.96;100.00
74103;BME280;62853;46.166;3.640;2023-02-28T07:28:44;102976.53;;;1.04;100.00
74103;BME280;62853;46.166;3.640;2023-02-28T07:31:13;102976.72;;;1.13;100.00
74103;BME280;62853;46.166;3.640;2023-02-28T07:33:45;102970.88;;;1.25;100.00
74103;BME280;62853;46.166;3.640;2023-02-28T07:36:28;102989.22;;;1.36;100.00
74103;BME280;62853;46.166;3.640;2023-02-28T07:39:04;102976.16;;;1.31;100.00
74103;BME280;62853;46.166;3.640;2023-02-28T07:41:37;102960.53;;;1.28;100.00
74103;BME280;62853;46.166;3.640;2023-02-28T07:44:09;102959.72;;;1.30;100.00
74103;BME280;62853;46.166;3.640;2023-02-28T07:46:35;102969.19;;;1.27;100.00
74103;BME280;62853;46.166;3.640;2023-02-28T07:49:04;102969.22;;;1.28;100.00
74103;BME280;62853;46.166;3.640;2023-02-28T07:51:41;102965.91;;;1.37;100.00
74103;BME280;62853;46.166;3.640;2023-02-28T07:54:14;102981.84;;;1.59;100.00
74103;BME280;62853;46.166;3.640;2023-02-28T07:56:44;102990.81;;;1.78;100.00
74103;BME280;62853;46.166;3.640;2023-02-28T07:59:19;102986.59;;;1.84;100.00
74103;BME280;62853;46.166;3.640;2023-02-28T08:01:46;102978.09;;;1.95;100.00
74103;BME280;62853;46.166;3.640;2023-02-28T08:04:22;102984.34;;;2.06;100.00
74103;BME280;62853;46.166;3.640;2023-02-28T08:06:48;102972.22;;;2.07;100.00
74103;BME280;62853;46.166;3.640;2023-02-28T08:09:50;102977.56;;;2.17;100.00
74103;BME280;62853;46.166;3.640;2023-02-28T08:13:03;102993.22;;;2.22;100.00
74103;BME280;62853;46.166;3.640;2023-02-28T08:15:42;102987.88;;;2.11;100.00
74103;BME280;62853;46.166;3.640;2023-02-28T08:18:33;102974.88;;;2.11;100.00
74103;BME280;62853;46.166;3.640;2023-02-28T08:24:45;102984.28;;;3.44;100.00
74103;BME280;62853;46.166;3.640;2023-02-28T08:27:43;102969.28;;;4.32;100.00
74103;BME280;62853;46.166;3.640;2023-02-28T08:30:57;102975.78;;;5.38;100.00
74103;BME280;62853;46.166;3.640;2023-02-28T08:33:44;102974.03;;;5.88;100.00
74103;BME280;62853;46.166;3.640;2023-02-28T08:36:41;102967.94;;;5.49;100.00
74103;BME280;62853;46.166;3.640;2023-02-28T08:42:56;102977.03;;;4.15;100.00
74103;BME280;62853;46.166;3.640;2023-02-28T08:45:35;102971.69;;;3.96;100.00
74103;BME280;62853;46.166;3.640;2023-02-28T08:48:30;102974.50;;;4.24;100.00
74103;BME280;62853;46.166;3.640;2023-02-28T08:51:16;102968.66;;;4.79;100.00
74103;BME280;62853;46.166;3.640;2023-02-28T08:54:23;102969.59;;;4.96;100.00
74103;BME280;62853;46.166;3.640;2023-02-28T09:01:16;102974.75;;;4.85;100.00
74103;BME280;62853;46.166;3.640;2023-02-28T09:07:19;102968.81;;;5.84;100.00
74103;BME280;62853;46.166;3.640;2023-02-28T09:18:05;102985.09;;;4.55;100.00
74103;BME280;62853;46.166;3.640;2023-02-28T09:21:21;102970.84;;;3.97;100.00
74103;BME280;62853;46.166;3.640;2023-02-28T09:24:12;102969.59;;;3.50;100.00
74103;BME280;62853;46.166;3.640;2023-02-28T09:27:20;102975.56;;;3.39;100.00
74103;BME280;62853;46.166;3.640;2023-02-28T09:30:03;102968.16;;;3.89;100.00
74103;BME280;62853;46.166;3.640;2023-02-28T09:36:02;102968.38;;;7.15;92.05
74103;BME280;62853;46.166;3.640;2023-02-28T09:38:59;102972.41;;;7.65;100.00
74103;BME280;62853;46.166;3.640;2023-02-28T09:42:29;102964.53;;;7.65;100.00
74103;BME280;62853;46.166;3.640;2023-02-28T09:45:28;102959.91;;;7.93;69.06
74103;BME280;62853;46.166;3.640;2023-02-28T09:57:46;102979.28;;;5.82;79.83
74103;BME280;62853;46.166;3.640;2023-02-28T10:05:02;102966.22;;;5.61;78.26
74103;BME280;62853;46.166;3.640;2023-02-28T10:16:29;102948.78;;;5.66;89.26
74103;BME280;62853;46.166;3.640;2023-02-28T10:22:52;102953.75;;;6.81;91.91
74103;BME280;62853;46.166;3.640;2023-02-28T10:25:40;102941.91;;;7.52;65.96
74103;BME280;62853;46.166;3.640;2023-02-28T10:28:54;102925.66;;;8.06;59.89
74103;BME280;62853;46.166;3.640;2023-02-28T10:31:26;102935.78;;;8.38;80.97
74103;BME280;62853;46.166;3.640;2023-02-28T10:37:29;102928.59;;;7.76;86.23
74103;BME280;62853;46.166;3.640;2023-02-28T10:46:46;102945.22;;;7.74;92.32
74103;BME280;62853;46.166;3.640;2023-02-28T11:02:58;102929.59;;;5.85;94.03
74103;BME280;62853;46.166;3.640;2023-02-28T11:05:30;102933.09;;;5.67;67.34
74103;BME280;62853;46.166;3.640;2023-02-28T11:08:34;102931.34;;;5.55;83.35
74103;BME280;62853;46.166;3.640;2023-02-28T11:11:28;102920.88;;;5.46;74.59
74103;BME280;62853;46.166;3.640;2023-02-28T11:17:24;102913.91;;;5.34;79.35
74103;BME280;62853;46.166;3.640;2023-02-28T11:20:32;102940.94;;;5.47;73.21
74103;BME280;62853;46.166;3.640;2023-02-28T11:23:02;102932.22;;;5.40;87.85
74103;BME280;62853;46.166;3.640;2023-02-28T11:25:47;102927.84;;;5.26;70.00
74103;BME280;62853;46.166;3.640;2023-02-28T11:29:02;102905.22;;;5.21;70.47
74103;BME280;62853;46.166;3.640;2023-02-28T11:31:38;102927.00;;;5.30;69.20
74103;BME280;62853;46.166;3.640;2023-02-28T11:37:31;102890.38;;;5.19;82.87
74103;BME280;62853;46.166;3.640;2023-02-28T11:46:50;102899.09;;;5.24;62.42
74103;BME280;62853;46.166;3.640;2023-02-28T11:56:43;102904.34;;;5.29;75.79
74103;BME280;62853;46.166;3.640;2023-02-28T11:59:35;102900.00;;;5.37;76.23
74103;BME280;62853;46.166;3.640;2023-02-28T12:06:19;102878.22;;;5.27;80.71
74103;BME280;62853;46.166;3.640;2023-02-28T12:12:41;102889.53;;;5.31;63.90
74103;BME280;62853;46.166;3.640;2023-02-28T12:22:04;102867.78;;;5.33;61.29
74103;BME280;62853;46.166;3.640;2023-02-28T12:24:47;102883.44;;;5.50;66.84
74103;BME280;62853;46.166;3.640;2023-02-28T12:27:27;102872.97;;;5.47;63.29
74103;BME280;62853;46.166;3.640;2023-02-28T12:30:08;102881.69;;;5.54;75.92
74103;BME280;62853;46.166;3.640;2023-02-28T12:32:49;102874.72;;;5.48;66.15
74103;BME280;62853;46.166;3.640;2023-02-28T12:39:16;102872.09;;;5.61;65.11
74103;BME280;62853;46.166;3.640;2023-02-28T12:42:10;102872.09;;;5.56;65.29
74103;BME280;62853;46.166;3.640;2023-02-28T12:45:19;102876.47;;;5.51;58.89
74103;BME280;62853;46.166;3.640;2023-02-28T12:48:15;102869.47;;;5.53;66.94
74103;BME280;62853;46.166;3.640;2023-02-28T12:51:00;102852.94;;;5.45;70.84
74103;BME280;62853;46.166;3.640;2023-02-28T12:54:10;102853.81;;;5.54;71.55
74103;BME280;62853;46.166;3.640;2023-02-28T12:57:01;102854.66;;;5.58;71.25
74103;BME280;62853;46.166;3.640;2023-02-28T13:00:04;102843.34;;;5.67;76.06
74103;BME280;62853;46.166;3.640;2023-02-28T13:13:12;102819.81;;;5.67;65.46
74103;BME280;62853;46.166;3.640;2023-02-28T13:25:50;102827.59;;;5.84;59.09
74103;BME280;62853;46.166;3.640;2023-02-28T13:51:01;102803.19;;;5.80;65.70
74103;BME280;62853;46.166;3.640;2023-02-28T13:54:10;102789.25;;;5.78;63.39
74103;BME280;62853;46.166;3.640;2023-02-28T14:06:55;102788.44;;;5.61;65.02
74103;BME280;62853;46.166;3.640;2023-02-28T14:12:59;102802.34;;;5.78;65.64
74103;BME280;62853;46.166;3.640;2023-02-28T14:16:06;102790.16;;;5.68;63.55
74103;BME280;62853;46.166;3.640;2023-02-28T14:29:14;102799.75;;;5.69;60.73
74103;BME280;62853;46.166;3.640;2023-02-28T14:38:59;102774.53;;;5.52;57.96
74103;BME280;62853;46.166;3.640;2023-02-28T14:41:55;102778.91;;;5.55;67.25
74103;BME280;62853;46.166;3.640;2023-02-28T15:02:44;102775.38;;;5.57;73.29
74103;BME280;62853;46.166;3.640;2023-02-28T15:05:23;102772.75;;;5.59;73.64
74103;BME280;62853;46.166;3.640;2023-02-28T15:12:05;102780.63;;;5.51;61.86
74103;BME280;62853;46.166;3.640;2023-02-28T15:15:03;102757.13;;;5.42;66.45
74103;BME280;62853;46.166;3.640;2023-02-28T15:21:02;102764.13;;;5.40;65.17
74103;BME280;62853;46.166;3.640;2023-02-28T15:23:44;102759.75;;;5.34;70.24
74103;BME280;62853;46.166;3.640;2023-02-28T15:26:59;102774.56;;;5.40;67.74
74103;BME280;62853;46.166;3.640;2023-02-28T15:33:29;102760.63;;;5.30;73.95
74103;BME280;62853;46.166;3.640;2023-02-28T15:36:19;102771.09;;;5.35;64.32
74103;BME280;62853;46.166;3.640;2023-02-28T15:38:56;102782.41;;;5.40;72.43
74103;BME280;62853;46.166;3.640;2023-02-28T15:48:53;102765.00;;;5.20;66.25
74103;BME280;62853;46.166;3.640;2023-02-28T15:55:31;102761.53;;;5.21;83.75
74103;BME280;62853;46.166;3.640;2023-02-28T15:58:44;102763.28;;;5.15;61.83
74103;BME280;62853;46.166;3.640;2023-02-28T16:11:53;102767.63;;;5.03;77.62
74103;BME280;62853;46.166;3.640;2023-02-28T16:18:02;102762.44;;;4.96;69.28
74103;BME280;62853;46.166;3.640;2023-02-28T16:24:04;102780.69;;;4.88;70.30
74103;BME280;62853;46.166;3.640;2023-02-28T16:26:46;102772.84;;;4.79;72.83
74103;BME280;62853;46.166;3.640;2023-02-28T16:29:35;102764.19;;;4.72;66.96
74103;BME280;62853;46.166;3.640;2023-02-28T16:32:31;102781.53;;;4.70;64.62
74103;BME280;62853;46.166;3.640;2023-02-28T16:35:02;102766.75;;;4.57;65.01
74103;BME280;62853;46.166;3.640;2023-02-28T16:37:28;102770.22;;;4.53;69.19
74103;BME280;62853;46.166;3.640;2023-02-28T16:40:17;102783.25;;;4.46;72.61
74103;BME280;62853;46.166;3.640;2023-02-28T16:43:07;102777.16;;;4.38;67.57
74103;BME280;62853;46.166;3.640;2023-02-28T16:48:59;102784.09;;;4.28;71.68
74103;BME280;62853;46.166;3.640;2023-02-28T16:51:35;102803.25;;;4.34;71.65
74103;BME280;62853;46.166;3.640;2023-02-28T16:54:23;102795.41;;;4.31;71.26
74103;BME280;62853;46.166;3.640;2023-02-28T16:57:22;102786.66;;;4.16;70.99
74103;BME280;62853;46.166;3.640;2023-02-28T17:06:35;102798.81;;;4.06;79.79
74103;BME280;62853;46.166;3.640;2023-02-28T17:09:03;102792.69;;;3.97;71.11
74103;BME280;62853;46.166;3.640;2023-02-28T17:11:42;102792.63;;;3.90;87.17
74103;BME280;62853;46.166;3.640;2023-02-28T17:14:33;102793.50;;;3.85;78.23
74103;BME280;62853;46.166;3.640;2023-02-28T17:17:14;102802.19;;;3.87;79.00
74103;BME280;62853;46.166;3.640;2023-02-28T17:19:58;102816.97;;;3.86;75.37
74103;BME280;62853;46.166;3.640;2023-02-28T17:22:31;102802.09;;;3.70;78.23
74103;BME280;62853;46.166;3.640;2023-02-28T17:25:10;102814.28;;;3.69;85.40
74103;BME280;62853;46.166;3.640;2023-02-28T17:27:45;102821.16;;;3.61;81.65
74103;BME280;62853;46.166;3.640;2023-02-28T17:30:34;102842.94;;;3.68;83.17
74103;BME280;62853;46.166;3.640;2023-02-28T17:34:09;102825.50;;;3.58;84.08
74103;BME280;62853;46.166;3.640;2023-02-28T17:36:41;102832.41;;;3.51;80.36
74103;BME280;62853;46.166;3.640;2023-02-28T17:45:16;102861.91;;;3.50;97.48
74103;BME280;62853;46.166;3.640;2023-02-28T17:51:47;102857.47;;;3.38;88.39
74103;BME280;62853;46.166;3.640;2023-02-28T17:57:44;102866.13;;;3.32;92.95
74103;BME280;62853;46.166;3.640;2023-02-28T18:00:46;102860.88;;;3.29;95.85
74103;BME280;62853;46.166;3.640;2023-02-28T18:03:29;102876.47;;;3.26;96.71
74103;BME280;62853;46.166;3.640;2023-02-28T18:23:43;102855.16;;;2.74;100.00
74103;BME280;62853;46.166;3.640;2023-02-28T18:26:53;102869.81;;;2.66;100.00
74103;BME280;62853;46.166;3.640;2023-02-28T18:33:34;102874.91;;;2.55;100.00
74103;BME280;62853;46.166;3.640;2023-02-28T18:40:19;102872.00;;;2.29;100.00
74103;BME280;62853;46.166;3.640;2023-02-28T18:43:34;102856.13;;;2.07;100.00
74103;BME280;62853;46.166;3.640;2023-02-28T18:49:54;102867.22;;;1.95;100.00
74103;BME280;62853;46.166;3.640;2023-02-28T18:52:44;102875.91;;;1.99;100.00
74103;BME280;62853;46.166;3.640;2023-02-28T18:55:26;102861.03;;;1.84;100.00
74103;BME280;62853;46.166;3.640;2023-02-28T18:58:07;102872.28;;;1.84;100.00
74103;BME280;62853;46.166;3.640;2023-02-28T19:01:23;102856.50;;;1.71;100.00
74103;BME280;62853;46.166;3.640;2023-02-28T19:04:15;102873.94;;;1.79;100.00
74103;BME280;62853;46.166;3.640;2023-02-28T19:07:12;102870.41;;;1.74;100.00
74103;BME280;62853;46.166;3.640;2023-02-28T19:16:47;102853.72;;;1.60;100.00
74103;BME280;62853;46.166;3.640;2023-02-28T19:22:49;102889.41;;;1.72;100.00
74103;BME280;62853;46.166;3.640;2023-02-28T19:31:53;102873.59;;;1.56;100.00
74103;BME280;62853;46.166;3.640;2023-02-28T19:38:14;102889.19;;;1.58;100.00
74103;BME280;62853;46.166;3.640;2023-02-28T19:41:30;102884.72;;;1.47;100.00
74103;BME280;62853;46.166;3.640;2023-02-28T19:53:02;102905.22;;;1.32;100.00
74103;BME280;62853;46.166;3.640;2023-02-28T19:55:42;102892.88;;;1.19;100.00
74103;BME280;62853;46.166;3.640;2023-02-28T20:05:39;102899.66;;;1.10;100.00
74103;BME280;62853;46.166;3.640;2023-02-28T20:18:28;102903.41;;;1.28;100.00